createdAt,value
2022-09-07T00:01:13.977Z,24.21
2022-09-07T00:03:42.373Z,24.21
2022-09-07T00:06:13.252Z,24.20
2022-09-07T00:08:43.612Z,24.20
2022-09-07T00:11:14.971Z,24.18
2022-09-07T00:13:44.670Z,24.19
2022-09-07T00:16:15.226Z,24.17
2022-09-07T00:18:46.249Z,24.16
2022-09-07T00:21:16.825Z,24.15
2022-09-07T00:23:45.699Z,24.15
2022-09-07T00:26:17.951Z,24.14
2022-09-07T00:28:47.099Z,24.14
2022-09-07T00:31:17.312Z,24.13
2022-09-07T00:33:46.530Z,24.13
2022-09-07T00:36:15.347Z,24.11
2022-09-07T00:38:43.834Z,24.10
2022-09-07T00:41:12.678Z,24.09
2022-09-07T00:43:44.425Z,24.08
2022-09-07T00:46:14.858Z,24.05
2022-09-07T00:48:46.641Z,24.04
2022-09-07T00:51:18.278Z,24.04
2022-09-07T00:53:53.685Z,24.05
2022-09-07T00:56:23.663Z,24.05
2022-09-07T00:58:53.938Z,24.03
2022-09-07T01:01:22.784Z,23.99
2022-09-07T01:03:52.637Z,23.98
2022-09-07T01:06:23.169Z,23.97
2022-09-07T01:08:51.720Z,23.96
2022-09-07T01:11:22.771Z,23.98
2022-09-07T01:13:53.446Z,23.98
2022-09-07T01:16:36.765Z,23.97
2022-09-07T01:19:15.631Z,23.97
2022-09-07T01:21:54.384Z,23.94
2022-09-07T01:24:36.617Z,23.93
2022-09-07T01:27:52.756Z,23.93
2022-09-07T01:30:23.175Z,23.92
2022-09-07T01:33:05.630Z,23.91
2022-09-07T01:35:40.988Z,23.91
2022-09-07T01:38:11.768Z,23.91
2022-09-07T01:40:47.162Z,23.88
2022-09-07T01:43:23.400Z,23.88
2022-09-07T01:45:55.070Z,23.88
2022-09-07T01:48:24.687Z,23.86
2022-09-07T01:50:56.846Z,23.87
2022-09-07T01:53:28.232Z,23.86
2022-09-07T01:55:59.672Z,23.84
2022-09-07T01:58:33.378Z,23.82
2022-09-07T02:01:06.333Z,23.81
2022-09-07T02:03:38.508Z,23.78
2022-09-07T02:06:12.737Z,23.80
2022-09-07T02:08:44.215Z,23.81
2022-09-07T02:11:16.139Z,23.79
2022-09-07T02:13:49.621Z,23.80
2022-09-07T02:16:21.183Z,23.79
2022-09-07T02:18:54.351Z,23.77
2022-09-07T02:21:26.321Z,23.79
2022-09-07T02:23:59.239Z,23.78
2022-09-07T02:26:29.776Z,23.76
2022-09-07T02:28:59.563Z,23.76
2022-09-07T02:31:28.651Z,23.74
2022-09-07T02:33:57.431Z,23.74
2022-09-07T02:36:27.899Z,23.71
2022-09-07T02:38:56.379Z,23.73
2022-09-07T02:41:31.712Z,23.71
2022-09-07T02:44:02.634Z,23.70
2022-09-07T02:46:41.742Z,23.70
2022-09-07T02:49:18.145Z,23.69
2022-09-07T02:51:51.963Z,23.68
2022-09-07T02:54:30.401Z,23.69
2022-09-07T02:57:05.785Z,23.68
2022-09-07T02:59:45.151Z,23.66
2022-09-07T03:02:20.974Z,23.66
2022-09-07T03:04:54.642Z,23.66
2022-09-07T03:07:27.056Z,23.66
2022-09-07T03:09:59.086Z,23.64
2022-09-07T03:12:39.788Z,23.63
2022-09-07T03:15:12.176Z,23.61
2022-09-07T03:17:40.769Z,23.61
2022-09-07T03:20:10.046Z,23.59
2022-09-07T03:22:38.585Z,23.61
2022-09-07T03:25:08.429Z,23.58
2022-09-07T03:27:36.927Z,23.59
2022-09-07T03:30:07.504Z,23.59
2022-09-07T03:32:38.571Z,23.58
2022-09-07T03:35:08.575Z,23.61
2022-09-07T03:37:37.408Z,23.60
2022-09-07T03:40:07.922Z,23.57
2022-09-07T03:42:36.460Z,23.56
2022-09-07T03:45:06.768Z,23.56
2022-09-07T03:47:35.334Z,23.56
2022-09-07T03:50:05.635Z,23.55
2022-09-07T03:52:34.969Z,23.54
2022-09-07T03:55:03.440Z,23.53
2022-09-07T03:57:32.120Z,23.52
2022-09-07T04:00:00.597Z,23.52
2022-09-07T04:02:29.050Z,23.54
2022-09-07T04:04:57.522Z,23.52
2022-09-07T04:07:27.297Z,23.51
2022-09-07T04:09:55.718Z,23.51
2022-09-07T04:12:26.046Z,23.51
2022-09-07T04:14:54.470Z,23.51
2022-09-07T04:17:23.005Z,23.55
2022-09-07T04:19:52.725Z,23.57
2022-09-07T04:22:21.327Z,23.57
2022-09-07T04:24:51.198Z,23.55
2022-09-07T04:27:19.611Z,23.56
2022-09-07T04:29:48.653Z,23.55
2022-09-07T04:32:17.119Z,23.55
2022-09-07T04:34:45.691Z,23.53
2022-09-07T04:37:20.347Z,23.50
2022-09-07T04:39:52.259Z,23.49
2022-09-07T04:42:27.060Z,23.49
2022-09-07T04:44:56.777Z,23.48
2022-09-07T04:47:28.567Z,23.46
2022-09-07T04:50:28.127Z,23.41
2022-09-07T04:53:00.036Z,23.39
2022-09-07T04:55:34.310Z,23.39
2022-09-07T04:58:05.805Z,23.39
2022-09-07T05:00:34.270Z,23.38
2022-09-07T05:03:02.714Z,23.38
2022-09-07T05:05:31.147Z,23.38
2022-09-07T05:07:59.583Z,23.36
2022-09-07T05:10:28.034Z,23.36
2022-09-07T05:12:58.291Z,23.36
2022-09-07T05:15:26.762Z,23.36
2022-09-07T05:17:55.583Z,23.36
2022-09-07T05:20:24.148Z,23.36
2022-09-07T05:22:59.449Z,23.37
2022-09-07T05:25:32.738Z,23.37
2022-09-07T05:28:03.886Z,23.35
2022-09-07T05:33:22.438Z,23.36
2022-09-07T05:36:01.623Z,23.34
2022-09-07T05:38:30.410Z,23.35
2022-09-07T05:40:59.356Z,23.34
2022-09-07T05:43:29.118Z,23.33
2022-09-07T05:45:58.609Z,23.34
2022-09-07T05:48:27.438Z,23.34
2022-09-07T05:50:55.968Z,23.32
2022-09-07T05:53:24.548Z,23.34
2022-09-07T05:55:53.021Z,23.33
2022-09-07T05:58:32.069Z,23.33
2022-09-07T06:01:12.020Z,23.32
2022-09-07T06:03:46.465Z,23.33
2022-09-07T06:06:20.710Z,23.32
2022-09-07T06:08:52.664Z,23.31
2022-09-07T06:11:22.834Z,23.31
2022-09-07T06:13:51.942Z,23.31
2022-09-07T06:16:21.997Z,23.31
2022-09-07T06:18:51.048Z,23.31
2022-09-07T06:21:21.644Z,23.31
2022-09-07T06:23:51.666Z,23.31
2022-09-07T06:26:20.468Z,23.32
2022-09-07T06:28:52.101Z,23.30
2022-09-07T06:31:25.741Z,23.30
2022-09-07T06:33:56.489Z,23.31
2022-09-07T06:36:27.282Z,23.30
2022-09-07T06:38:56.793Z,23.30
2022-09-07T06:44:21.485Z,23.31
2022-09-07T06:47:06.722Z,23.30
2022-09-07T06:49:35.182Z,23.29
2022-09-07T06:52:04.178Z,23.29
2022-09-07T06:57:28.347Z,23.30
2022-09-07T07:00:02.605Z,23.30
2022-09-07T07:02:36.699Z,23.30
2022-09-07T07:05:05.658Z,23.28
2022-09-07T07:07:41.331Z,23.28
2022-09-07T07:10:11.475Z,23.29
2022-09-07T07:12:52.044Z,23.30
2022-09-07T07:15:24.567Z,23.29
2022-09-07T07:18:05.500Z,23.27
2022-09-07T07:20:48.236Z,23.29
2022-09-07T07:23:16.708Z,23.29
2022-09-07T07:25:50.181Z,23.29
2022-09-07T07:31:19.303Z,23.30
2022-09-07T07:33:54.532Z,23.29
2022-09-07T07:36:26.953Z,23.28
2022-09-07T07:44:18.993Z,23.29
2022-09-07T07:46:48.914Z,23.30
2022-09-07T07:49:27.216Z,23.29
2022-09-07T07:54:46.995Z,23.30
2022-09-07T07:57:24.490Z,23.31
2022-09-07T07:59:54.567Z,23.30
2022-09-07T08:02:23.673Z,23.31
2022-09-07T08:04:53.785Z,23.33
2022-09-07T08:07:22.266Z,23.31
2022-09-07T08:09:51.573Z,23.30
2022-09-07T08:12:21.281Z,23.31
2022-09-07T08:14:49.902Z,23.32
2022-09-07T08:17:18.673Z,23.32
2022-09-07T08:19:50.270Z,23.32
2022-09-07T08:22:23.773Z,23.32
2022-09-07T08:24:54.084Z,23.34
2022-09-07T08:27:22.754Z,23.34
2022-09-07T08:29:51.647Z,23.36
2022-09-07T08:32:20.127Z,23.37
2022-09-07T08:34:48.704Z,23.37
2022-09-07T08:37:17.075Z,23.36
2022-09-07T08:39:46.967Z,23.37
2022-09-07T08:42:26.268Z,23.38
2022-09-07T08:44:58.115Z,23.38
2022-09-07T08:47:33.246Z,23.39
2022-09-07T08:50:04.965Z,23.39
2022-09-07T08:52:42.148Z,23.37
2022-09-07T08:55:21.464Z,23.37
2022-09-07T08:57:57.113Z,23.38
2022-09-07T09:00:27.193Z,23.39
2022-09-07T09:05:58.064Z,23.39
2022-09-07T09:08:34.579Z,23.38
2022-09-07T09:11:08.542Z,23.38
2022-09-07T09:13:49.754Z,23.40
2022-09-07T09:19:30.169Z,23.48
2022-09-07T09:22:09.115Z,23.55
2022-09-07T09:24:39.946Z,23.63
2022-09-07T09:27:10.635Z,23.64
2022-09-07T09:29:39.230Z,23.64
2022-09-07T09:32:39.909Z,23.65
2022-09-07T09:35:18.481Z,23.65
2022-09-07T09:37:47.378Z,23.69
2022-09-07T09:40:22.132Z,23.76
2022-09-07T09:43:01.837Z,23.74
2022-09-07T09:46:12.074Z,23.74
2022-09-07T09:48:29.586Z,23.77
2022-09-07T09:53:53.951Z,23.63
2022-09-07T09:56:23.206Z,23.59
2022-09-07T10:05:25.020Z,23.64
2022-09-07T10:08:00.784Z,23.64
2022-09-07T10:10:31.424Z,23.65
2022-09-07T10:13:00.553Z,23.64
2022-09-07T10:15:40.988Z,23.63
2022-09-07T10:18:19.420Z,23.64
2022-09-07T10:20:49.088Z,23.67
2022-09-07T10:23:23.236Z,23.70
2022-09-07T10:25:53.677Z,23.68
2022-09-07T10:31:28.895Z,23.71
2022-09-07T10:34:27.369Z,23.74
2022-09-07T10:37:09.832Z,23.74
2022-09-07T10:40:07.590Z,23.80
2022-09-07T10:42:38.855Z,23.80
2022-09-07T10:45:15.451Z,23.82
2022-09-07T10:47:55.354Z,23.89
2022-09-07T10:50:35.836Z,23.91
2022-09-07T10:54:29.261Z,23.83
2022-09-07T10:56:54.132Z,23.97
2022-09-07T11:02:29.631Z,23.89
2022-09-07T11:05:06.658Z,23.88
2022-09-07T11:07:55.760Z,23.87
2022-09-07T11:10:29.389Z,24.00
2022-09-07T11:13:01.337Z,24.15
2022-09-07T11:15:32.787Z,24.19
2022-09-07T11:18:04.867Z,24.20
2022-09-07T11:20:37.530Z,24.20
2022-09-07T11:23:13.125Z,24.29
2022-09-07T11:25:46.646Z,24.32
2022-09-07T11:28:19.477Z,24.16
2022-09-07T11:30:56.611Z,24.17
2022-09-07T11:33:30.527Z,24.29
2022-09-07T11:36:03.530Z,24.39
2022-09-07T11:38:43.487Z,24.40
2022-09-07T11:41:29.605Z,24.34
2022-09-07T11:44:05.553Z,24.35
2022-09-07T11:46:38.933Z,24.36
2022-09-07T11:49:12.484Z,24.44
2022-09-07T11:51:46.330Z,24.43
2022-09-07T11:54:37.596Z,24.48
2022-09-07T11:57:33.803Z,24.52
2022-09-07T12:00:11.981Z,24.52
2022-09-07T12:03:03.059Z,24.60
2022-09-07T12:05:42.406Z,24.59
2022-09-07T12:08:21.946Z,24.58
2022-09-07T12:11:23.505Z,24.57
2022-09-07T12:14:01.677Z,24.52
2022-09-07T12:16:41.888Z,24.53
2022-09-07T12:19:17.856Z,24.62
2022-09-07T12:21:50.576Z,24.64
2022-09-07T12:24:43.956Z,24.66
2022-09-07T12:27:43.218Z,24.61
2022-09-07T12:30:51.848Z,24.64
2022-09-07T12:33:34.078Z,24.66
2022-09-07T12:36:26.775Z,24.74
2022-09-07T12:39:45.797Z,24.90
2022-09-07T12:42:37.784Z,24.97
2022-09-07T12:45:52.324Z,25.01
2022-09-07T12:48:39.761Z,24.99
2022-09-07T12:51:59.693Z,24.99
2022-09-07T12:54:13.814Z,25.00
2022-09-07T12:56:45.462Z,25.01
2022-09-07T12:59:41.502Z,25.02
2022-09-07T13:02:31.789Z,24.94
2022-09-07T13:05:06.846Z,25.03
2022-09-07T13:08:14.556Z,25.22
2022-09-07T13:10:55.419Z,25.26
2022-09-07T13:16:32.242Z,25.34
2022-09-07T13:19:03.035Z,25.36
2022-09-07T13:21:46.829Z,25.37
2022-09-07T13:25:02.534Z,25.32
2022-09-07T13:27:56.906Z,25.22
2022-09-07T13:31:00.895Z,25.27
2022-09-07T13:33:45.959Z,25.31
2022-09-07T13:36:42.570Z,25.33
2022-09-07T13:39:19.533Z,25.36
2022-09-07T13:41:59.172Z,25.44
2022-09-07T13:44:39.647Z,25.47
2022-09-07T13:47:23.810Z,25.48
2022-09-07T13:50:09.593Z,25.51
2022-09-07T13:53:16.547Z,25.54
2022-09-07T13:55:59.935Z,25.57
2022-09-07T13:58:34.100Z,25.65
2022-09-07T14:01:05.990Z,25.66
2022-09-07T14:04:01.643Z,25.69
2022-09-07T14:06:42.391Z,25.68
2022-09-07T14:09:15.751Z,25.70
2022-09-07T14:11:46.128Z,25.74
2022-09-07T14:14:20.929Z,25.78
2022-09-07T14:16:51.488Z,25.83
2022-09-07T14:19:24.038Z,25.83
2022-09-07T14:21:59.131Z,25.86
2022-09-07T14:24:35.889Z,25.85
2022-09-07T14:27:24.376Z,25.90
2022-09-07T14:30:02.102Z,25.94
2022-09-07T14:32:39.508Z,25.97
2022-09-07T14:35:12.239Z,26.01
2022-09-07T14:37:42.536Z,26.02
2022-09-07T14:40:20.335Z,26.00
2022-09-07T14:42:59.358Z,25.93
2022-09-07T14:45:42.681Z,25.93
2022-09-07T14:48:20.373Z,25.98
2022-09-07T14:51:05.519Z,26.06
2022-09-07T14:53:40.566Z,26.09
2022-09-07T14:56:10.690Z,26.10
2022-09-07T14:58:39.078Z,26.12
2022-09-07T15:04:18.265Z,26.11
2022-09-07T15:07:03.277Z,26.14
2022-09-07T15:09:37.800Z,26.24
2022-09-07T15:12:17.605Z,26.28
2022-09-07T15:14:47.657Z,26.27
2022-09-07T15:20:36.202Z,26.31
2022-09-07T15:23:07.264Z,26.30
2022-09-07T15:25:38.078Z,26.24
2022-09-07T15:28:06.586Z,26.21
2022-09-07T15:30:45.893Z,26.22
2022-09-07T15:33:39.635Z,26.23
2022-09-07T15:36:24.743Z,26.28
2022-09-07T15:39:01.103Z,26.31
2022-09-07T15:41:32.351Z,26.38
2022-09-07T15:44:01.232Z,26.40
2022-09-07T15:46:37.170Z,26.44
2022-09-07T15:49:16.804Z,26.42
2022-09-07T15:52:06.589Z,26.41
2022-09-07T15:54:39.898Z,26.45
2022-09-07T16:00:14.949Z,26.44
2022-09-07T16:03:11.104Z,26.43
2022-09-07T16:05:47.614Z,26.45
2022-09-07T16:08:26.615Z,26.49
2022-09-07T16:11:05.226Z,26.50
2022-09-07T16:13:40.110Z,26.47
2022-09-07T16:16:09.003Z,26.45
2022-09-07T16:18:40.270Z,26.46
2022-09-07T16:21:11.894Z,26.47
2022-09-07T16:23:42.733Z,26.46
2022-09-07T16:26:12.154Z,26.46
2022-09-07T16:28:44.034Z,26.49
2022-09-07T16:31:14.937Z,26.48
2022-09-07T16:33:43.992Z,26.50
2022-09-07T16:36:14.323Z,26.43
2022-09-07T16:38:44.689Z,26.47
2022-09-07T16:41:30.416Z,26.47
2022-09-07T16:44:02.411Z,26.45
2022-09-07T16:46:32.885Z,26.46
2022-09-07T16:49:01.264Z,26.47
2022-09-07T16:51:29.702Z,26.47
2022-09-07T16:53:58.906Z,26.45
2022-09-07T16:56:28.416Z,26.44
2022-09-07T16:58:58.896Z,26.44
2022-09-07T17:01:30.553Z,26.43
2022-09-07T17:03:59.407Z,26.42
2022-09-07T17:06:29.782Z,26.41
2022-09-07T17:08:59.152Z,26.39
2022-09-07T17:11:39.988Z,26.40
2022-09-07T17:14:14.595Z,26.39
2022-09-07T17:16:56.080Z,26.38
2022-09-07T17:19:30.174Z,26.36
2022-09-07T17:22:04.156Z,26.35
2022-09-07T17:24:33.949Z,26.35
2022-09-07T17:27:03.333Z,26.33
2022-09-07T17:29:37.154Z,26.34
2022-09-07T17:32:24.576Z,26.34
2022-09-07T17:34:54.027Z,26.33
2022-09-07T17:37:28.567Z,26.31
2022-09-07T17:39:59.118Z,26.29
2022-09-07T17:45:33.226Z,26.23
2022-09-07T17:48:18.725Z,26.23
2022-09-07T17:50:53.153Z,26.22
2022-09-07T17:53:34.541Z,26.19
2022-09-07T17:56:05.084Z,26.16
2022-09-07T17:58:36.185Z,26.15
2022-09-07T18:01:06.731Z,26.17
2022-09-07T18:03:36.861Z,26.16
2022-09-07T18:06:06.419Z,26.15
2022-09-07T18:08:34.868Z,26.14
2022-09-07T18:14:15.590Z,26.13
2022-09-07T18:16:49.136Z,26.10
2022-09-07T18:19:20.545Z,26.08
2022-09-07T18:21:57.406Z,26.07
2022-09-07T18:24:33.270Z,26.08
2022-09-07T18:27:10.958Z,26.07
2022-09-07T18:29:41.001Z,26.06
2022-09-07T18:32:09.982Z,26.04
2022-09-07T18:34:50.255Z,26.03
2022-09-07T18:37:26.912Z,26.03
2022-09-07T18:40:08.232Z,26.04
2022-09-07T18:42:37.304Z,26.01
2022-09-07T18:47:56.937Z,25.98
2022-09-07T18:50:30.051Z,25.96
2022-09-07T18:53:10.619Z,25.95
2022-09-07T18:55:48.648Z,25.94
2022-09-07T18:58:21.334Z,25.94
2022-09-07T19:00:54.736Z,25.92
2022-09-07T19:03:23.259Z,25.93
2022-09-07T19:06:07.097Z,25.92
2022-09-07T19:08:45.220Z,25.90
2022-09-07T19:11:20.267Z,25.88
2022-09-07T19:13:48.815Z,25.86
2022-09-07T19:16:18.627Z,25.85
2022-09-07T19:18:52.214Z,25.85
2022-09-07T19:21:24.779Z,25.85
2022-09-07T19:23:56.804Z,25.86
2022-09-07T19:26:31.420Z,25.87
2022-09-07T19:29:21.316Z,25.86
2022-09-07T19:32:07.197Z,25.82
2022-09-07T19:34:55.919Z,25.80
2022-09-07T19:37:26.146Z,25.81
2022-09-07T19:39:55.243Z,25.81
2022-09-07T19:42:24.667Z,25.80
2022-09-07T19:44:53.213Z,25.81
2022-09-07T19:47:21.812Z,25.79
2022-09-07T19:49:50.431Z,25.80
2022-09-07T19:52:18.794Z,25.79
2022-09-07T19:54:48.462Z,25.77
2022-09-07T19:57:16.894Z,25.72
2022-09-07T19:59:45.613Z,25.67
2022-09-07T20:02:14.409Z,25.66
2022-09-07T20:04:42.851Z,25.68
2022-09-07T20:07:11.351Z,25.70
2022-09-07T20:09:39.874Z,25.65
2022-09-07T20:12:10.061Z,25.61
2022-09-07T20:14:38.469Z,25.58
2022-09-07T20:17:06.855Z,25.53
2022-09-07T20:19:35.313Z,25.56
2022-09-07T20:22:03.654Z,25.59
2022-09-07T20:24:32.192Z,25.60
2022-09-07T20:27:02.616Z,25.59
2022-09-07T20:29:32.662Z,25.61
2022-09-07T20:32:01.611Z,25.61
2022-09-07T20:34:30.343Z,25.62
2022-09-07T20:36:58.980Z,25.61
2022-09-07T20:39:27.367Z,25.61
2022-09-07T20:41:55.785Z,25.58
2022-09-07T20:44:24.250Z,25.58
2022-09-07T20:46:54.961Z,25.58
2022-09-07T20:49:23.603Z,25.57
2022-09-07T20:51:52.082Z,25.57
2022-09-07T20:54:20.580Z,25.55
2022-09-07T20:56:49.117Z,25.54
2022-09-07T20:59:17.660Z,25.54
2022-09-07T21:01:46.545Z,25.53
2022-09-07T21:04:16.726Z,25.53
2022-09-07T21:06:45.241Z,25.50
2022-09-07T21:09:14.381Z,25.49
2022-09-07T21:11:46.149Z,25.48
2022-09-07T21:14:19.273Z,25.49
2022-09-07T21:16:47.765Z,25.46
2022-09-07T21:19:17.738Z,25.44
2022-09-07T21:21:46.426Z,25.45
2022-09-07T21:24:20.418Z,25.45
2022-09-07T21:26:57.218Z,25.44
2022-09-07T21:29:30.867Z,25.42
2022-09-07T21:32:03.945Z,25.38
2022-09-07T21:34:38.718Z,25.37
2022-09-07T21:37:08.845Z,25.36
2022-09-07T21:39:37.267Z,25.39
2022-09-07T21:42:05.986Z,25.39
2022-09-07T21:44:34.380Z,25.35
2022-09-07T21:47:02.823Z,25.35
2022-09-07T21:49:31.336Z,25.33
2022-09-07T21:52:01.094Z,25.31
2022-09-07T21:54:30.090Z,25.30
2022-09-07T21:56:58.845Z,25.29
2022-09-07T21:59:29.508Z,25.28
2022-09-07T22:01:59.280Z,25.28
2022-09-07T22:04:28.816Z,25.27
2022-09-07T22:06:57.207Z,25.24
2022-09-07T22:09:26.927Z,25.23
2022-09-07T22:11:55.320Z,25.24
2022-09-07T22:14:23.705Z,25.25
2022-09-07T22:16:52.188Z,25.28
2022-09-07T22:19:20.812Z,25.26
2022-09-07T22:21:49.276Z,25.26
2022-09-07T22:24:17.646Z,25.23
2022-09-07T22:26:47.349Z,25.16
2022-09-07T22:29:15.702Z,25.14
2022-09-07T22:31:44.502Z,25.14
2022-09-07T22:34:12.946Z,25.13
2022-09-07T22:36:42.650Z,25.14
2022-09-07T22:39:13.433Z,25.13
2022-09-07T22:41:42.468Z,25.13
2022-09-07T22:44:14.853Z,25.12
2022-09-07T22:46:44.643Z,25.13
2022-09-07T22:49:15.040Z,25.15
2022-09-07T22:51:43.525Z,25.17
2022-09-07T22:54:11.908Z,25.17
2022-09-07T22:56:40.538Z,25.17
2022-09-07T22:59:10.275Z,25.17
2022-09-07T23:01:40.307Z,25.17
2022-09-07T23:04:09.028Z,25.14
2022-09-07T23:06:39.152Z,25.07
2022-09-07T23:09:09.570Z,25.02
2022-09-07T23:11:38.426Z,24.98
2022-09-07T23:14:09.198Z,24.92
2022-09-07T23:16:37.696Z,24.90
2022-09-07T23:19:07.497Z,24.87
2022-09-07T23:21:35.877Z,24.85
2022-09-07T23:24:04.545Z,24.81
2022-09-07T23:26:33.506Z,24.82
2022-09-07T23:29:04.324Z,24.81
2022-09-07T23:31:33.882Z,24.77
2022-09-07T23:34:02.820Z,24.74
2022-09-07T23:36:32.806Z,24.75
2022-09-07T23:39:01.468Z,24.69
2022-09-07T23:41:29.890Z,24.65
2022-09-07T23:43:58.255Z,24.67
2022-09-07T23:46:26.728Z,24.64
2022-09-07T23:48:55.138Z,24.63
2022-09-07T23:51:24.713Z,24.60
2022-09-07T23:53:54.652Z,24.53
2022-09-07T23:56:24.431Z,24.55
2022-09-07T23:58:53.064Z,24.55
